createdAt,value
2024-05-09T00:00:52.596Z,49.57
2024-05-09T00:04:56.646Z,49.57
2024-05-09T00:08:34.589Z,49.99
2024-05-09T00:12:11.068Z,50.18
2024-05-09T00:15:48.075Z,50.42
2024-05-09T00:19:28.227Z,50.36
2024-05-09T00:23:06.515Z,50.67
2024-05-09T00:26:39.350Z,50.78
2024-05-09T00:30:31.029Z,50.79
2024-05-09T00:34:01.171Z,51.05
2024-05-09T00:37:39.091Z,51.17
2024-05-09T00:41:17.130Z,51.25
2024-05-09T00:44:54.148Z,51.21
2024-05-09T00:48:32.938Z,51.48
2024-05-09T00:52:10.334Z,51.53
2024-05-09T00:55:46.425Z,51.81
2024-05-09T00:59:24.639Z,52.01
2024-05-09T01:03:03.039Z,51.89
2024-05-09T01:06:40.498Z,51.60
2024-05-09T01:10:21.279Z,51.59
2024-05-09T01:13:54.515Z,51.45
2024-05-09T01:17:32.689Z,51.62
2024-05-09T01:21:11.395Z,51.78
2024-05-09T01:24:48.635Z,51.76
2024-05-09T01:28:23.296Z,51.96
2024-05-09T01:32:07.311Z,51.83
2024-05-09T01:35:45.056Z,52.01
2024-05-09T01:39:21.146Z,52.06
2024-05-09T01:43:00.389Z,52.36
2024-05-09T01:46:38.088Z,52.49
2024-05-09T01:50:16.657Z,52.69
2024-05-09T01:53:49.910Z,53.05
2024-05-09T01:57:34.420Z,53.15
2024-05-09T02:01:10.784Z,53.31
2024-05-09T02:04:47.820Z,53.47
2024-05-09T02:08:32.117Z,53.60
2024-05-09T02:12:09.782Z,53.71
2024-05-09T02:15:44.449Z,53.91
2024-05-09T02:19:28.446Z,53.95
2024-05-09T02:23:06.218Z,54.15
2024-05-09T02:26:41.276Z,54.25
2024-05-09T02:30:30.013Z,54.51
2024-05-09T02:33:59.260Z,54.36
2024-05-09T02:37:33.670Z,54.82
2024-05-09T02:41:17.578Z,54.84
2024-05-09T02:44:51.998Z,55.09
2024-05-09T02:48:32.464Z,54.97
2024-05-09T02:52:19.614Z,55.06
2024-05-09T02:55:50.671Z,55.24
2024-05-09T02:59:35.187Z,55.55
2024-05-09T03:03:14.377Z,55.55
2024-05-09T03:06:46.614Z,55.73
2024-05-09T03:10:35.950Z,55.76
2024-05-09T03:14:05.318Z,55.91
2024-05-09T03:17:49.364Z,55.90
2024-05-09T03:21:26.845Z,56.16
2024-05-09T03:25:04.876Z,56.13
2024-05-09T03:28:44.916Z,56.40
2024-05-09T03:32:18.598Z,56.46
2024-05-09T03:35:56.623Z,56.59
2024-05-09T03:39:35.683Z,56.85
2024-05-09T03:43:12.854Z,57.18
2024-05-09T03:46:51.061Z,57.51
2024-05-09T03:50:33.661Z,57.61
2024-05-09T03:54:07.728Z,57.73
2024-05-09T03:57:42.562Z,57.73
2024-05-09T04:01:20.416Z,57.80
2024-05-09T04:04:57.891Z,57.47
2024-05-09T04:08:37.327Z,57.23
2024-05-09T04:12:15.627Z,57.20
2024-05-09T04:15:51.191Z,56.79
2024-05-09T04:19:30.588Z,56.34
2024-05-09T04:23:12.010Z,55.98
2024-05-09T04:26:45.726Z,55.44
2024-05-09T04:30:33.672Z,55.29
2024-05-09T04:33:59.747Z,55.22
2024-05-09T04:37:39.463Z,55.06
2024-05-09T04:41:17.251Z,55.18
2024-05-09T04:44:56.427Z,54.73
2024-05-09T04:48:30.550Z,54.57
2024-05-09T05:16:24.748Z,52.95
2024-05-09T05:19:17.561Z,52.12
2024-05-09T05:22:53.645Z,51.92
2024-05-09T05:26:34.033Z,51.52
2024-05-09T05:30:14.767Z,50.89
2024-05-09T05:33:48.757Z,50.76
2024-05-09T05:37:24.663Z,50.55
2024-05-09T05:41:02.345Z,50.46
2024-05-09T05:44:41.367Z,50.17
2024-05-09T05:48:18.402Z,49.93
2024-05-09T05:51:55.341Z,49.53
2024-05-09T05:55:34.516Z,49.49
2024-05-09T05:59:15.060Z,49.00
2024-05-09T06:02:48.556Z,48.41
2024-05-09T06:06:26.156Z,48.35
2024-05-09T06:10:07.256Z,48.51
2024-05-09T06:13:43.833Z,48.66
2024-05-09T06:17:19.418Z,47.66
2024-05-09T06:20:57.312Z,47.67
2024-05-09T06:24:42.845Z,47.46
2024-05-09T06:28:11.087Z,47.98
2024-05-09T06:31:54.404Z,46.96
2024-05-09T06:35:31.278Z,46.52
2024-05-09T06:39:10.098Z,45.79
2024-05-09T06:42:47.927Z,45.67
2024-05-09T06:46:25.221Z,46.00
2024-05-09T06:50:03.529Z,46.38
2024-05-09T06:53:40.762Z,44.85
2024-05-09T06:57:19.377Z,44.68
2024-05-09T07:00:55.006Z,44.20
2024-05-09T07:04:32.958Z,44.26
2024-05-09T07:08:12.116Z,44.15
2024-05-09T07:11:50.321Z,45.42
2024-05-09T07:15:27.407Z,44.36
2024-05-09T07:19:03.744Z,43.80
2024-05-09T07:22:41.837Z,43.42
2024-05-09T07:26:20.976Z,44.58
2024-05-09T07:29:58.354Z,44.49
2024-05-09T07:33:32.955Z,43.83
2024-05-09T07:37:15.506Z,44.20
2024-05-09T07:40:54.898Z,44.61
2024-05-09T07:44:31.647Z,43.81
2024-05-09T07:49:44.502Z,44.26
2024-05-09T07:53:21.717Z,43.34
2024-05-09T07:55:32.601Z,42.49
2024-05-09T07:59:05.911Z,43.26
2024-05-09T08:02:43.725Z,41.29
2024-05-09T08:06:37.546Z,42.29
2024-05-09T08:09:57.005Z,41.81
2024-05-09T08:13:44.673Z,43.01
2024-05-09T08:17:16.504Z,43.01
2024-05-09T08:20:48.428Z,43.12
2024-05-09T08:24:30.812Z,41.44
2024-05-09T08:28:06.964Z,40.90
2024-05-09T08:31:59.470Z,41.31
2024-05-09T08:35:29.088Z,41.17
2024-05-09T08:39:04.667Z,41.62
2024-05-09T08:42:52.572Z,41.48
2024-05-09T08:46:26.688Z,41.90
2024-05-09T08:50:03.147Z,41.08
2024-05-09T08:53:47.937Z,41.34
2024-05-09T08:57:25.767Z,39.58
2024-05-09T09:01:00.194Z,40.63
2024-05-09T09:04:37.920Z,40.36
2024-05-09T09:08:14.630Z,40.98
2024-05-09T09:22:15.712Z,40.41
2024-05-09T09:25:12.852Z,39.44
2024-05-09T09:28:44.907Z,40.42
2024-05-09T09:32:29.048Z,40.03
2024-05-09T09:35:54.535Z,39.84
2024-05-09T09:39:49.037Z,40.57
2024-05-09T09:43:19.448Z,39.76
2024-05-09T09:47:04.912Z,39.59
2024-05-09T09:50:41.200Z,39.50
2024-05-09T09:54:21.595Z,39.28
2024-05-09T09:57:46.490Z,39.52
2024-05-09T10:01:21.233Z,39.07
2024-05-09T10:05:12.546Z,39.63
2024-05-09T10:08:54.075Z,39.95
2024-05-09T10:12:22.948Z,38.37
2024-05-09T10:15:58.329Z,38.38
2024-05-09T10:19:48.867Z,38.18
2024-05-09T10:23:27.349Z,38.55
2024-05-09T10:27:04.008Z,38.92
2024-05-09T10:30:35.921Z,38.50
2024-05-09T10:34:17.495Z,37.64
2024-05-09T10:37:53.330Z,38.39
2024-05-09T10:41:23.825Z,38.70
2024-05-09T10:45:08.904Z,38.59
2024-05-09T10:48:41.333Z,38.68
2024-05-09T11:02:50.529Z,38.22
2024-05-09T11:05:42.754Z,37.85
2024-05-09T11:09:29.449Z,37.64
2024-05-09T11:12:59.316Z,38.03
2024-05-09T11:16:43.323Z,38.00
2024-05-09T11:20:37.327Z,37.69
2024-05-09T11:24:00.610Z,37.48
2024-05-09T11:27:27.928Z,37.46
2024-05-09T11:31:12.095Z,37.27
2024-05-09T11:34:49.217Z,37.01
2024-05-09T11:38:27.646Z,36.48
2024-05-09T11:42:00.696Z,36.68
2024-05-09T11:45:40.517Z,36.64
2024-05-09T11:49:27.154Z,37.02
2024-05-09T11:53:00.534Z,37.29
2024-05-09T11:56:32.414Z,37.09
2024-05-09T12:00:14.801Z,36.97
2024-05-09T12:03:45.605Z,36.87
2024-05-09T12:07:27.694Z,36.70
2024-05-09T12:11:05.288Z,36.68
2024-05-09T12:14:36.125Z,36.00
2024-05-09T12:18:28.177Z,36.53
2024-05-09T12:22:08.530Z,35.94
2024-05-09T12:25:35.768Z,36.07
2024-05-09T12:29:09.738Z,36.43
2024-05-09T12:33:11.852Z,36.39
2024-05-09T12:36:28.360Z,36.27
2024-05-09T12:40:18.568Z,36.23
2024-05-09T12:43:51.545Z,36.07
2024-05-09T12:47:26.215Z,36.00
2024-05-09T12:51:05.728Z,36.09
2024-05-09T12:54:45.506Z,35.99
2024-05-09T12:58:21.713Z,35.21
2024-05-09T13:01:59.561Z,35.88
2024-05-09T13:05:47.343Z,36.07
2024-05-09T13:09:13.896Z,35.82
2024-05-09T13:12:52.291Z,35.39
2024-05-09T13:16:30.815Z,35.80
2024-05-09T13:20:09.281Z,36.00
2024-05-09T13:34:10.819Z,35.85
2024-05-09T13:37:01.642Z,35.82
2024-05-09T13:40:39.903Z,35.84
2024-05-09T13:44:18.995Z,35.88
2024-05-09T13:47:56.753Z,35.37
2024-05-09T13:51:32.743Z,35.80
2024-05-09T13:55:12.063Z,35.29
2024-05-09T13:58:46.548Z,35.73
2024-05-09T14:02:32.275Z,35.58
2024-05-09T14:06:11.299Z,35.81
2024-05-09T14:09:46.982Z,36.40
2024-05-09T14:13:21.966Z,35.87
2024-05-09T14:16:59.894Z,35.33
2024-05-09T14:20:39.262Z,36.24
2024-05-09T14:24:15.151Z,35.85
2024-05-09T14:27:52.621Z,35.36
2024-05-09T14:31:30.564Z,35.87
2024-05-09T14:35:08.246Z,35.03
2024-05-09T14:38:46.015Z,35.36
2024-05-09T14:42:42.676Z,35.26
2024-05-09T14:46:01.726Z,35.38
2024-05-09T14:49:42.035Z,35.62
2024-05-09T14:53:17.223Z,35.48
2024-05-09T14:56:54.824Z,35.09
2024-05-09T15:00:35.947Z,35.38
2024-05-09T15:04:10.081Z,35.56
2024-05-09T15:07:49.400Z,35.30
2024-05-09T15:11:25.423Z,35.31
2024-05-09T15:15:03.999Z,36.04
2024-05-09T15:18:44.053Z,35.26
2024-05-09T15:22:20.339Z,35.15
2024-05-09T15:25:55.393Z,35.17
2024-05-09T15:29:32.196Z,35.76
2024-05-09T15:33:16.603Z,35.60
2024-05-09T15:36:52.375Z,35.48
2024-05-09T15:40:36.110Z,35.07
2024-05-09T15:44:20.438Z,35.39
2024-05-09T16:39:58.176Z,35.96
2024-05-09T16:42:48.449Z,35.76
2024-05-09T16:46:24.747Z,35.62
2024-05-09T16:50:10.694Z,35.97
2024-05-09T16:53:44.830Z,35.82
2024-05-09T16:57:20.579Z,35.80
2024-05-09T17:01:04.781Z,35.54
2024-05-09T17:04:46.532Z,35.38
2024-05-09T17:08:20.419Z,34.98
2024-05-09T17:12:20.778Z,35.24
2024-05-09T17:15:43.191Z,35.17
2024-05-09T17:19:20.039Z,35.20
2024-05-09T17:23:14.659Z,35.05
2024-05-09T18:32:18.146Z,36.51
2024-05-09T18:35:10.899Z,36.74
2024-05-09T18:38:52.034Z,37.01
2024-05-09T18:42:24.526Z,37.10
2024-05-09T18:46:03.945Z,37.34
2024-05-09T18:49:40.205Z,37.66
2024-05-09T18:53:19.453Z,37.86
2024-05-09T18:56:55.483Z,37.95
2024-05-09T19:00:37.081Z,38.33
2024-05-09T19:04:11.263Z,38.28
2024-05-09T19:07:50.431Z,38.43
2024-05-09T19:11:26.381Z,38.83
2024-05-09T19:15:04.447Z,39.18
2024-05-09T19:18:42.129Z,39.25
2024-05-09T19:22:22.087Z,39.42
2024-05-09T19:25:59.159Z,39.71
2024-05-09T19:29:35.466Z,40.03
2024-05-09T19:33:13.851Z,40.44
2024-05-09T19:37:01.274Z,40.48
2024-05-09T19:40:36.831Z,40.88
2024-05-09T19:44:11.852Z,41.09
2024-05-09T19:47:48.409Z,41.19
2024-05-09T19:51:33.122Z,41.38
2024-05-09T19:55:06.668Z,41.43
2024-05-09T19:58:49.283Z,41.59
2024-05-09T20:02:26.669Z,41.69
2024-05-09T20:06:06.230Z,41.56
2024-05-09T20:09:43.885Z,41.84
2024-05-09T20:13:18.383Z,42.06
2024-05-09T20:17:01.213Z,41.94
2024-05-09T20:20:40.341Z,42.17
2024-05-09T20:24:26.863Z,41.93
2024-05-09T20:28:01.493Z,42.11
2024-05-09T20:31:45.178Z,42.11
2024-05-09T20:35:19.619Z,41.92
2024-05-09T20:39:03.274Z,42.03
2024-05-09T20:42:43.952Z,42.17
2024-05-09T20:46:17.619Z,42.33
2024-05-09T20:49:55.211Z,42.48
2024-05-09T20:53:34.374Z,42.46
2024-05-09T20:57:12.103Z,42.95
2024-05-09T21:00:46.658Z,43.06
2024-05-09T21:04:31.855Z,43.45
2024-05-09T21:08:09.030Z,43.69
2024-05-09T21:11:47.370Z,43.71
2024-05-09T21:15:20.636Z,43.57
2024-05-09T21:19:09.090Z,43.76
2024-05-09T21:22:38.615Z,44.09
2024-05-09T21:26:23.690Z,44.47
2024-05-09T21:29:59.932Z,44.61
2024-05-09T21:33:38.011Z,44.85
2024-05-09T21:37:12.329Z,45.04
2024-05-09T21:40:56.915Z,45.12
2024-05-09T21:44:34.008Z,45.40
2024-05-09T21:48:09.013Z,45.64
2024-05-09T21:51:52.937Z,45.80
2024-05-09T21:55:30.524Z,46.09
2024-05-09T21:59:04.573Z,46.10
2024-05-09T22:02:47.017Z,46.27
2024-05-09T22:06:22.434Z,46.37
2024-05-09T22:10:06.401Z,46.56
2024-05-09T22:13:40.394Z,46.79
2024-05-09T22:17:24.362Z,47.00
2024-05-09T22:21:01.892Z,47.14
2024-05-09T22:24:38.194Z,47.31
2024-05-09T22:28:16.131Z,47.63
2024-05-09T22:31:55.507Z,47.62
2024-05-09T22:35:37.857Z,47.64
2024-05-09T22:39:19.115Z,47.90
2024-05-09T22:42:45.075Z,48.09
2024-05-09T22:46:25.662Z,48.34
2024-05-09T22:50:12.851Z,48.33
2024-05-09T22:53:47.459Z,48.38
2024-05-09T22:57:25.054Z,48.42
2024-05-09T23:00:59.432Z,48.57
2024-05-09T23:04:43.250Z,48.44
2024-05-09T23:08:21.630Z,48.46
2024-05-09T23:11:57.311Z,48.66
2024-05-09T23:15:33.036Z,48.80
2024-05-09T23:19:17.138Z,48.95
2024-05-09T23:22:54.615Z,49.21
2024-05-09T23:26:28.689Z,49.27
2024-05-09T23:30:12.600Z,49.46
2024-05-09T23:33:50.549Z,49.35
2024-05-09T23:37:28.466Z,49.46
2024-05-09T23:41:02.235Z,49.50
2024-05-09T23:44:46.273Z,49.67
2024-05-09T23:48:22.561Z,49.71
2024-05-09T23:52:01.363Z,49.75
2024-05-09T23:55:39.775Z,49.94
2024-05-09T23:59:17.122Z,50.14
